Kellogg, Minnesota
Current Conditions -  °F | °C
As of 12:34 AM on Friday 19 Dec 2014 (Local Time) from KONA Reporting Station
Overcast Overcast  
Wind Chill: 27°   Ceiling: 1700
Heat Index: 27°   Visibility: 10mi
Dew Point: 19°   Wind: 0mph
Humidity: 74%   Direction: NA
Pressure: 30.3"   Gusts: NA
Location:  44.31°N, 92°W
Report Text: KONA 190634Z AUTO 00000KT 10SM OVC017 M03/M07 A3030 RMK AO2
Loading
Personal Weather Stations






























Interactive Weather Map New forecast layout! Learn more

10-Day Weather Forecast

Advertisements
Track Severe Weather on mobile